sensor_id;sensor_type;location;lat;lon;timestamp;temperature;humidity
18229;DHT22;9239;50.932;3.142;2023-02-28T00:01:32;1.60;99.90
18229;DHT22;9239;50.932;3.142;2023-02-28T00:04:01;1.60;99.90
18229;DHT22;9239;50.932;3.142;2023-02-28T00:06:28;1.60;99.90
18229;DHT22;9239;50.932;3.142;2023-02-28T00:08:55;1.70;99.90
18229;DHT22;9239;50.932;3.142;2023-02-28T00:11:22;1.70;99.90
18229;DHT22;9239;50.932;3.142;2023-02-28T00:13:49;1.60;99.90
18229;DHT22;9239;50.932;3.142;2023-02-28T00:16:18;1.60;99.90
18229;DHT22;9239;50.932;3.142;2023-02-28T00:18:45;1.50;99.90
18229;DHT22;9239;50.932;3.142;2023-02-28T00:21:14;1.50;99.90
18229;DHT22;9239;50.932;3.142;2023-02-28T00:23:41;1.50;99.90
18229;DHT22;9239;50.932;3.142;2023-02-28T00:26:08;1.40;99.90
18229;DHT22;9239;50.932;3.142;2023-02-28T00:28:35;1.50;99.90
18229;DHT22;9239;50.932;3.142;2023-02-28T00:31:02;1.40;99.90
18229;DHT22;9239;50.932;3.142;2023-02-28T00:33:29;1.40;99.90
18229;DHT22;9239;50.932;3.142;2023-02-28T00:36:04;1.30;99.90
18229;DHT22;9239;50.932;3.142;2023-02-28T00:38:33;1.30;99.90
18229;DHT22;9239;50.932;3.142;2023-02-28T00:41:00;1.30;99.90
18229;DHT22;9239;50.932;3.142;2023-02-28T00:43:30;1.30;99.90
18229;DHT22;9239;50.932;3.142;2023-02-28T00:45:57;1.40;99.90
18229;DHT22;9239;50.932;3.142;2023-02-28T00:48:24;1.50;99.90
18229;DHT22;9239;50.932;3.142;2023-02-28T00:50:51;1.60;99.90
18229;DHT22;9239;50.932;3.142;2023-02-28T00:53:18;1.60;99.90
18229;DHT22;9239;50.932;3.142;2023-02-28T00:55:46;1.50;99.90
18229;DHT22;9239;50.932;3.142;2023-02-28T00:58:13;1.50;99.90
18229;DHT22;9239;50.932;3.142;2023-02-28T01:00:40;1.40;99.90
18229;DHT22;9239;50.932;3.142;2023-02-28T01:03:07;1.30;99.90
18229;DHT22;9239;50.932;3.142;2023-02-28T01:05:34;1.20;99.90
18229;DHT22;9239;50.932;3.142;2023-02-28T01:08:05;1.20;99.90
18229;DHT22;9239;50.932;3.142;2023-02-28T01:10:32;1.20;99.90
18229;DHT22;9239;50.932;3.142;2023-02-28T01:13:00;1.20;99.90
18229;DHT22;9239;50.932;3.142;2023-02-28T01:15:27;1.20;99.90
18229;DHT22;9239;50.932;3.142;2023-02-28T01:17:53;1.30;99.90
18229;DHT22;9239;50.932;3.142;2023-02-28T01:20:20;1.20;99.90
18229;DHT22;9239;50.932;3.142;2023-02-28T01:22:47;1.20;99.90
18229;DHT22;9239;50.932;3.142;2023-02-28T01:25:14;1.20;99.90
18229;DHT22;9239;50.932;3.142;2023-02-28T01:27:41;1.10;99.90
18229;DHT22;9239;50.932;3.142;2023-02-28T01:30:10;1.10;99.90
18229;DHT22;9239;50.932;3.142;2023-02-28T01:32:37;1.20;99.90
18229;DHT22;9239;50.932;3.142;2023-02-28T01:35:05;1.10;99.90
18229;DHT22;9239;50.932;3.142;2023-02-28T01:37:31;1.30;99.90
18229;DHT22;9239;50.932;3.142;2023-02-28T01:39:58;1.20;99.90
18229;DHT22;9239;50.932;3.142;2023-02-28T01:42:25;1.20;99.90
18229;DHT22;9239;50.932;3.142;2023-02-28T01:45:03;1.10;99.90
18229;DHT22;9239;50.932;3.142;2023-02-28T01:47:37;1.10;99.90
18229;DHT22;9239;50.932;3.142;2023-02-28T01:50:09;1.10;99.90
18229;DHT22;9239;50.932;3.142;2023-02-28T01:52:38;1.00;99.90
18229;DHT22;9239;50.932;3.142;2023-02-28T01:55:07;1.00;99.90
18229;DHT22;9239;50.932;3.142;2023-02-28T01:57:38;1.00;99.90
18229;DHT22;9239;50.932;3.142;2023-02-28T02:00:08;1.00;99.90
18229;DHT22;9239;50.932;3.142;2023-02-28T02:02:37;0.90;99.90
18229;DHT22;9239;50.932;3.142;2023-02-28T02:05:06;1.00;99.90
18229;DHT22;9239;50.932;3.142;2023-02-28T02:07:35;1.00;99.90
18229;DHT22;9239;50.932;3.142;2023-02-28T02:10:06;1.00;99.90
18229;DHT22;9239;50.932;3.142;2023-02-28T02:12:52;1.00;99.90
18229;DHT22;9239;50.932;3.142;2023-02-28T02:15:26;1.00;99.90
18229;DHT22;9239;50.932;3.142;2023-02-28T02:18:03;1.20;99.90
18229;DHT22;9239;50.932;3.142;2023-02-28T02:20:51;1.20;99.90
18229;DHT22;9239;50.932;3.142;2023-02-28T02:23:48;1.20;99.90
18229;DHT22;9239;50.932;3.142;2023-02-28T02:35:12;1.20;99.90
18229;DHT22;9239;50.932;3.142;2023-02-28T02:37:45;1.20;99.90
18229;DHT22;9239;50.932;3.142;2023-02-28T02:40:17;1.10;99.90
18229;DHT22;9239;50.932;3.142;2023-02-28T02:42:50;1.10;99.90
18229;DHT22;9239;50.932;3.142;2023-02-28T02:45:23;1.10;99.90
18229;DHT22;9239;50.932;3.142;2023-02-28T02:47:53;1.00;99.90
18229;DHT22;9239;50.932;3.142;2023-02-28T02:50:26;0.90;99.90
18229;DHT22;9239;50.932;3.142;2023-02-28T02:52:57;1.00;99.90
18229;DHT22;9239;50.932;3.142;2023-02-28T02:55:28;1.00;99.90
18229;DHT22;9239;50.932;3.142;2023-02-28T02:57:59;1.10;99.90
18229;DHT22;9239;50.932;3.142;2023-02-28T03:00:31;1.10;99.90
18229;DHT22;9239;50.932;3.142;2023-02-28T03:03:01;1.00;99.90
18229;DHT22;9239;50.932;3.142;2023-02-28T03:05:34;1.00;99.90
18229;DHT22;9239;50.932;3.142;2023-02-28T03:08:03;1.10;99.90
18229;DHT22;9239;50.932;3.142;2023-02-28T03:10:36;1.00;99.90
18229;DHT22;9239;50.932;3.142;2023-02-28T03:16:32;1.10;99.90
18229;DHT22;9239;50.932;3.142;2023-02-28T03:19:19;1.00;99.90
18229;DHT22;9239;50.932;3.142;2023-02-28T03:22:00;1.10;99.90
18229;DHT22;9239;50.932;3.142;2023-02-28T03:24:35;1.10;99.90
18229;DHT22;9239;50.932;3.142;2023-02-28T03:27:09;1.00;99.90
18229;DHT22;9239;50.932;3.142;2023-02-28T03:29:40;1.00;99.90
18229;DHT22;9239;50.932;3.142;2023-02-28T03:32:16;0.90;99.90
18229;DHT22;9239;50.932;3.142;2023-02-28T03:34:49;0.80;99.90
18229;DHT22;9239;50.932;3.142;2023-02-28T03:37:22;0.90;99.90
18229;DHT22;9239;50.932;3.142;2023-02-28T03:39:54;1.00;99.90
18229;DHT22;9239;50.932;3.142;2023-02-28T03:42:24;1.00;99.90
18229;DHT22;9239;50.932;3.142;2023-02-28T03:44:55;1.10;99.90
18229;DHT22;9239;50.932;3.142;2023-02-28T03:47:25;1.10;99.90
18229;DHT22;9239;50.932;3.142;2023-02-28T03:49:56;1.10;99.90
18229;DHT22;9239;50.932;3.142;2023-02-28T03:52:29;1.00;99.90
18229;DHT22;9239;50.932;3.142;2023-02-28T03:55:02;1.00;99.90
18229;DHT22;9239;50.932;3.142;2023-02-28T03:57:36;1.10;99.90
18229;DHT22;9239;50.932;3.142;2023-02-28T04:00:07;1.20;99.90
18229;DHT22;9239;50.932;3.142;2023-02-28T04:02:36;1.20;99.90
18229;DHT22;9239;50.932;3.142;2023-02-28T04:05:03;1.20;99.90
18229;DHT22;9239;50.932;3.142;2023-02-28T04:07:32;1.20;99.90
18229;DHT22;9239;50.932;3.142;2023-02-28T04:09:59;1.20;99.90
18229;DHT22;9239;50.932;3.142;2023-02-28T04:12:26;1.20;99.90
18229;DHT22;9239;50.932;3.142;2023-02-28T04:14:53;1.20;99.90
18229;DHT22;9239;50.932;3.142;2023-02-28T04:17:20;1.20;99.90
18229;DHT22;9239;50.932;3.142;2023-02-28T04:19:47;1.20;99.90
18229;DHT22;9239;50.932;3.142;2023-02-28T04:22:13;1.20;99.90
18229;DHT22;9239;50.932;3.142;2023-02-28T04:24:44;1.30;99.90
18229;DHT22;9239;50.932;3.142;2023-02-28T04:27:11;1.30;99.90
18229;DHT22;9239;50.932;3.142;2023-02-28T04:29:38;1.30;99.90
18229;DHT22;9239;50.932;3.142;2023-02-28T04:32:05;1.30;99.90
18229;DHT22;9239;50.932;3.142;2023-02-28T04:34:32;1.40;99.90
18229;DHT22;9239;50.932;3.142;2023-02-28T04:36:59;1.40;99.90
18229;DHT22;9239;50.932;3.142;2023-02-28T04:39:26;1.40;99.90
18229;DHT22;9239;50.932;3.142;2023-02-28T04:41:55;1.50;99.90
18229;DHT22;9239;50.932;3.142;2023-02-28T04:44:22;1.50;99.90
18229;DHT22;9239;50.932;3.142;2023-02-28T04:46:49;1.60;99.90
18229;DHT22;9239;50.932;3.142;2023-02-28T04:49:16;1.60;99.90
18229;DHT22;9239;50.932;3.142;2023-02-28T04:51:43;1.70;99.90
18229;DHT22;9239;50.932;3.142;2023-02-28T04:54:10;1.70;99.90
18229;DHT22;9239;50.932;3.142;2023-02-28T04:56:37;1.70;99.90
18229;DHT22;9239;50.932;3.142;2023-02-28T04:59:05;1.70;99.90
18229;DHT22;9239;50.932;3.142;2023-02-28T05:01:33;1.80;99.90
18229;DHT22;9239;50.932;3.142;2023-02-28T05:04:03;1.80;99.90
18229;DHT22;9239;50.932;3.142;2023-02-28T05:06:32;1.80;99.90
18229;DHT22;9239;50.932;3.142;2023-02-28T05:08:59;1.90;99.90
18229;DHT22;9239;50.932;3.142;2023-02-28T05:11:28;1.90;99.90
18229;DHT22;9239;50.932;3.142;2023-02-28T05:14:00;2.00;99.90
18229;DHT22;9239;50.932;3.142;2023-02-28T05:16:28;2.00;99.90
18229;DHT22;9239;50.932;3.142;2023-02-28T05:18:55;2.00;99.90
18229;DHT22;9239;50.932;3.142;2023-02-28T05:21:28;2.10;99.90
18229;DHT22;9239;50.932;3.142;2023-02-28T05:23:56;2.10;99.90
18229;DHT22;9239;50.932;3.142;2023-02-28T05:26:23;2.10;99.90
18229;DHT22;9239;50.932;3.142;2023-02-28T05:28:50;2.10;99.90
18229;DHT22;9239;50.932;3.142;2023-02-28T05:31:17;2.10;99.90
18229;DHT22;9239;50.932;3.142;2023-02-28T05:33:46;2.10;99.90
18229;DHT22;9239;50.932;3.142;2023-02-28T05:36:13;2.10;99.90
18229;DHT22;9239;50.932;3.142;2023-02-28T05:38:40;2.10;99.90
18229;DHT22;9239;50.932;3.142;2023-02-28T05:41:07;2.20;99.90
18229;DHT22;9239;50.932;3.142;2023-02-28T05:43:35;2.20;99.90
18229;DHT22;9239;50.932;3.142;2023-02-28T05:46:03;2.30;99.90
18229;DHT22;9239;50.932;3.142;2023-02-28T05:48:31;2.30;99.90
18229;DHT22;9239;50.932;3.142;2023-02-28T05:50:59;2.40;99.90
18229;DHT22;9239;50.932;3.142;2023-02-28T05:53:26;2.40;99.90
18229;DHT22;9239;50.932;3.142;2023-02-28T05:55:53;2.50;99.90
18229;DHT22;9239;50.932;3.142;2023-02-28T05:58:20;2.50;99.90
18229;DHT22;9239;50.932;3.142;2023-02-28T06:00:47;2.50;99.90
18229;DHT22;9239;50.932;3.142;2023-02-28T06:03:14;2.50;99.90
18229;DHT22;9239;50.932;3.142;2023-02-28T06:05:41;2.50;99.90
18229;DHT22;9239;50.932;3.142;2023-02-28T06:08:10;2.50;99.90
18229;DHT22;9239;50.932;3.142;2023-02-28T06:10:37;2.50;99.90
18229;DHT22;9239;50.932;3.142;2023-02-28T06:13:04;2.50;99.90
18229;DHT22;9239;50.932;3.142;2023-02-28T06:15:31;2.50;99.90
18229;DHT22;9239;50.932;3.142;2023-02-28T06:17:58;2.50;99.90
18229;DHT22;9239;50.932;3.142;2023-02-28T06:20:26;2.50;99.90
18229;DHT22;9239;50.932;3.142;2023-02-28T06:22:55;2.60;99.90
18229;DHT22;9239;50.932;3.142;2023-02-28T06:25:25;2.60;99.90
18229;DHT22;9239;50.932;3.142;2023-02-28T06:27:52;2.60;99.90
18229;DHT22;9239;50.932;3.142;2023-02-28T06:30:19;2.60;99.90
18229;DHT22;9239;50.932;3.142;2023-02-28T06:32:49;2.60;99.90
18229;DHT22;9239;50.932;3.142;2023-02-28T06:35:16;2.60;99.90
18229;DHT22;9239;50.932;3.142;2023-02-28T06:37:43;2.60;99.90
18229;DHT22;9239;50.932;3.142;2023-02-28T06:40:11;2.70;99.90
18229;DHT22;9239;50.932;3.142;2023-02-28T06:42:39;2.90;99.90
18229;DHT22;9239;50.932;3.142;2023-02-28T06:45:07;3.00;99.90
18229;DHT22;9239;50.932;3.142;2023-02-28T06:47:35;3.10;99.90
18229;DHT22;9239;50.932;3.142;2023-02-28T06:50:03;3.00;99.90
18229;DHT22;9239;50.932;3.142;2023-02-28T06:52:30;3.10;99.90
18229;DHT22;9239;50.932;3.142;2023-02-28T06:54:57;3.10;99.90
18229;DHT22;9239;50.932;3.142;2023-02-28T06:57:28;3.10;99.90
18229;DHT22;9239;50.932;3.142;2023-02-28T06:59:58;3.10;99.90
18229;DHT22;9239;50.932;3.142;2023-02-28T07:02:25;3.20;99.90
18229;DHT22;9239;50.932;3.142;2023-02-28T07:04:52;3.20;99.90
18229;DHT22;9239;50.932;3.142;2023-02-28T07:07:19;3.30;99.90
18229;DHT22;9239;50.932;3.142;2023-02-28T07:09:46;3.30;99.90
18229;DHT22;9239;50.932;3.142;2023-02-28T07:12:13;3.30;99.90
18229;DHT22;9239;50.932;3.142;2023-02-28T07:14:40;3.20;99.90
18229;DHT22;9239;50.932;3.142;2023-02-28T07:17:09;3.20;99.90
18229;DHT22;9239;50.932;3.142;2023-02-28T07:19:37;3.20;99.90
18229;DHT22;9239;50.932;3.142;2023-02-28T07:22:04;3.20;99.90
18229;DHT22;9239;50.932;3.142;2023-02-28T07:24:31;3.20;99.90
18229;DHT22;9239;50.932;3.142;2023-02-28T07:26:58;3.30;99.90
18229;DHT22;9239;50.932;3.142;2023-02-28T07:29:26;3.20;99.90
18229;DHT22;9239;50.932;3.142;2023-02-28T07:31:53;3.20;99.90
18229;DHT22;9239;50.932;3.142;2023-02-28T07:34:22;3.20;99.90
18229;DHT22;9239;50.932;3.142;2023-02-28T07:36:49;3.20;99.90
18229;DHT22;9239;50.932;3.142;2023-02-28T07:39:19;3.20;99.90
18229;DHT22;9239;50.932;3.142;2023-02-28T07:41:45;3.30;99.90
18229;DHT22;9239;50.932;3.142;2023-02-28T07:44:12;3.40;99.90
18229;DHT22;9239;50.932;3.142;2023-02-28T07:46:39;3.60;99.90
18229;DHT22;9239;50.932;3.142;2023-02-28T07:49:06;3.60;99.90
18229;DHT22;9239;50.932;3.142;2023-02-28T07:51:34;3.70;99.90
18229;DHT22;9239;50.932;3.142;2023-02-28T07:54:01;3.70;99.90
18229;DHT22;9239;50.932;3.142;2023-02-28T07:56:28;3.70;99.90
18229;DHT22;9239;50.932;3.142;2023-02-28T07:58:55;3.70;99.90
18229;DHT22;9239;50.932;3.142;2023-02-28T08:01:22;3.80;99.90
18229;DHT22;9239;50.932;3.142;2023-02-28T08:03:49;3.80;99.90
18229;DHT22;9239;50.932;3.142;2023-02-28T08:06:18;3.90;99.90
18229;DHT22;9239;50.932;3.142;2023-02-28T08:08:47;3.80;99.90
18229;DHT22;9239;50.932;3.142;2023-02-28T08:11:14;3.90;99.90
18229;DHT22;9239;50.932;3.142;2023-02-28T08:13:41;3.90;99.90
18229;DHT22;9239;50.932;3.142;2023-02-28T08:16:10;4.00;99.90
18229;DHT22;9239;50.932;3.142;2023-02-28T08:18:37;4.00;99.90
18229;DHT22;9239;50.932;3.142;2023-02-28T08:21:07;4.00;99.90
18229;DHT22;9239;50.932;3.142;2023-02-28T08:23:34;4.00;99.90
18229;DHT22;9239;50.932;3.142;2023-02-28T08:26:03;4.00;99.90
18229;DHT22;9239;50.932;3.142;2023-02-28T08:28:30;3.90;99.90
18229;DHT22;9239;50.932;3.142;2023-02-28T08:30:57;4.00;99.90
18229;DHT22;9239;50.932;3.142;2023-02-28T08:33:25;3.80;99.90
18229;DHT22;9239;50.932;3.142;2023-02-28T08:35:53;3.60;99.90
18229;DHT22;9239;50.932;3.142;2023-02-28T08:38:21;3.60;99.90
18229;DHT22;9239;50.932;3.142;2023-02-28T08:40:48;3.60;99.90
18229;DHT22;9239;50.932;3.142;2023-02-28T08:43:16;3.60;99.90
18229;DHT22;9239;50.932;3.142;2023-02-28T08:45:43;3.70;99.90
18229;DHT22;9239;50.932;3.142;2023-02-28T08:48:10;3.70;99.90
18229;DHT22;9239;50.932;3.142;2023-02-28T08:50:36;3.70;99.90
18229;DHT22;9239;50.932;3.142;2023-02-28T08:53:03;3.70;99.90
18229;DHT22;9239;50.932;3.142;2023-02-28T08:55:30;3.60;99.90
18229;DHT22;9239;50.932;3.142;2023-02-28T08:57:57;3.70;99.90
18229;DHT22;9239;50.932;3.142;2023-02-28T09:00:26;3.50;99.90
18229;DHT22;9239;50.932;3.142;2023-02-28T09:02:53;3.60;99.90
18229;DHT22;9239;50.932;3.142;2023-02-28T09:05:20;3.60;99.90
18229;DHT22;9239;50.932;3.142;2023-02-28T09:07:47;3.70;99.90
18229;DHT22;9239;50.932;3.142;2023-02-28T09:10:13;3.70;99.90
18229;DHT22;9239;50.932;3.142;2023-02-28T09:12:40;3.70;99.90
18229;DHT22;9239;50.932;3.142;2023-02-28T09:15:08;3.70;99.90
18229;DHT22;9239;50.932;3.142;2023-02-28T09:17:36;3.60;99.90
18229;DHT22;9239;50.932;3.142;2023-02-28T09:20:04;3.50;99.90
18229;DHT22;9239;50.932;3.142;2023-02-28T09:22:31;3.50;99.90
18229;DHT22;9239;50.932;3.142;2023-02-28T09:24:58;3.50;99.90
18229;DHT22;9239;50.932;3.142;2023-02-28T09:27:25;3.50;99.90
18229;DHT22;9239;50.932;3.142;2023-02-28T09:29:52;3.60;99.90
18229;DHT22;9239;50.932;3.142;2023-02-28T09:32:19;3.60;99.90
18229;DHT22;9239;50.932;3.142;2023-02-28T09:34:47;3.60;99.90
18229;DHT22;9239;50.932;3.142;2023-02-28T09:37:14;3.70;99.90
18229;DHT22;9239;50.932;3.142;2023-02-28T09:39:41;3.70;99.90
18229;DHT22;9239;50.932;3.142;2023-02-28T09:42:18;3.70;99.90
18229;DHT22;9239;50.932;3.142;2023-02-28T09:44:48;3.80;99.90
18229;DHT22;9239;50.932;3.142;2023-02-28T09:47:27;3.80;99.90
18229;DHT22;9239;50.932;3.142;2023-02-28T09:49:59;3.80;99.90
18229;DHT22;9239;50.932;3.142;2023-02-28T09:52:30;3.90;99.90
18229;DHT22;9239;50.932;3.142;2023-02-28T09:55:01;3.80;99.90
18229;DHT22;9239;50.932;3.142;2023-02-28T09:57:42;3.90;99.90
18229;DHT22;9239;50.932;3.142;2023-02-28T10:00:15;3.80;99.90
18229;DHT22;9239;50.932;3.142;2023-02-28T10:03:06;3.90;99.90
18229;DHT22;9239;50.932;3.142;2023-02-28T10:05:41;3.90;99.90
18229;DHT22;9239;50.932;3.142;2023-02-28T10:08:14;4.00;99.90
18229;DHT22;9239;50.932;3.142;2023-02-28T10:10:43;4.00;99.90
18229;DHT22;9239;50.932;3.142;2023-02-28T10:13:20;4.00;99.90
18229;DHT22;9239;50.932;3.142;2023-02-28T10:15:52;4.10;99.90
18229;DHT22;9239;50.932;3.142;2023-02-28T10:18:24;4.10;99.90
18229;DHT22;9239;50.932;3.142;2023-02-28T10:20:53;4.10;99.90
18229;DHT22;9239;50.932;3.142;2023-02-28T10:23:25;4.10;99.90
18229;DHT22;9239;50.932;3.142;2023-02-28T10:25:55;4.20;99.90
18229;DHT22;9239;50.932;3.142;2023-02-28T10:28:25;4.30;99.90
18229;DHT22;9239;50.932;3.142;2023-02-28T10:30:53;4.40;99.90
18229;DHT22;9239;50.932;3.142;2023-02-28T10:33:23;4.30;99.90
18229;DHT22;9239;50.932;3.142;2023-02-28T10:35:53;4.10;99.90
18229;DHT22;9239;50.932;3.142;2023-02-28T10:38:21;4.10;99.90
18229;DHT22;9239;50.932;3.142;2023-02-28T10:40:49;4.10;99.90
18229;DHT22;9239;50.932;3.142;2023-02-28T10:43:21;4.20;99.90
18229;DHT22;9239;50.932;3.142;2023-02-28T10:45:56;4.30;99.90
18229;DHT22;9239;50.932;3.142;2023-02-28T10:48:34;4.30;99.90
18229;DHT22;9239;50.932;3.142;2023-02-28T10:51:05;4.40;99.90
18229;DHT22;9239;50.932;3.142;2023-02-28T10:53:35;4.50;99.90
18229;DHT22;9239;50.932;3.142;2023-02-28T10:56:04;4.40;99.90
18229;DHT22;9239;50.932;3.142;2023-02-28T10:58:44;4.30;99.90
18229;DHT22;9239;50.932;3.142;2023-02-28T11:01:15;4.40;99.90
18229;DHT22;9239;50.932;3.142;2023-02-28T11:03:42;4.40;99.90
18229;DHT22;9239;50.932;3.142;2023-02-28T11:06:16;4.30;99.90
18229;DHT22;9239;50.932;3.142;2023-02-28T11:08:48;4.20;99.90
18229;DHT22;9239;50.932;3.142;2023-02-28T11:11:16;4.30;99.90
18229;DHT22;9239;50.932;3.142;2023-02-28T11:13:45;4.40;99.90
18229;DHT22;9239;50.932;3.142;2023-02-28T11:16:14;4.60;99.90
18229;DHT22;9239;50.932;3.142;2023-02-28T11:18:47;4.70;99.90
18229;DHT22;9239;50.932;3.142;2023-02-28T11:21:20;4.90;99.90
18229;DHT22;9239;50.932;3.142;2023-02-28T11:23:50;4.90;99.90
18229;DHT22;9239;50.932;3.142;2023-02-28T11:26:36;5.00;99.90
18229;DHT22;9239;50.932;3.142;2023-02-28T11:29:10;5.00;99.90
18229;DHT22;9239;50.932;3.142;2023-02-28T11:31:37;5.20;99.90
18229;DHT22;9239;50.932;3.142;2023-02-28T11:34:23;5.40;99.90
18229;DHT22;9239;50.932;3.142;2023-02-28T11:36:54;5.50;99.90
18229;DHT22;9239;50.932;3.142;2023-02-28T11:39:22;5.60;99.90
18229;DHT22;9239;50.932;3.142;2023-02-28T11:42:07;5.30;99.90
18229;DHT22;9239;50.932;3.142;2023-02-28T11:44:47;5.50;99.90
18229;DHT22;9239;50.932;3.142;2023-02-28T11:47:28;5.70;99.90
18229;DHT22;9239;50.932;3.142;2023-02-28T11:50:10;5.80;99.90
18229;DHT22;9239;50.932;3.142;2023-02-28T11:52:47;5.80;99.90
18229;DHT22;9239;50.932;3.142;2023-02-28T11:55:18;5.90;99.90
18229;DHT22;9239;50.932;3.142;2023-02-28T11:58:04;6.10;99.90
18229;DHT22;9239;50.932;3.142;2023-02-28T12:03:30;6.00;99.90
18229;DHT22;9239;50.932;3.142;2023-02-28T12:06:08;6.00;99.90
18229;DHT22;9239;50.932;3.142;2023-02-28T12:08:53;6.10;99.90
18229;DHT22;9239;50.932;3.142;2023-02-28T12:11:37;6.20;99.90
18229;DHT22;9239;50.932;3.142;2023-02-28T12:17:25;6.00;99.90
18229;DHT22;9239;50.932;3.142;2023-02-28T12:20:02;6.00;99.90
18229;DHT22;9239;50.932;3.142;2023-02-28T12:22:37;6.10;99.90
18229;DHT22;9239;50.932;3.142;2023-02-28T12:25:34;6.10;99.90
18229;DHT22;9239;50.932;3.142;2023-02-28T12:28:09;6.00;99.90
18229;DHT22;9239;50.932;3.142;2023-02-28T12:30:41;5.90;99.90
18229;DHT22;9239;50.932;3.142;2023-02-28T12:33:12;6.00;99.90
18229;DHT22;9239;50.932;3.142;2023-02-28T12:35:46;6.10;99.90
18229;DHT22;9239;50.932;3.142;2023-02-28T12:38:17;6.20;99.90
18229;DHT22;9239;50.932;3.142;2023-02-28T12:40:49;6.30;99.90
18229;DHT22;9239;50.932;3.142;2023-02-28T12:43:18;6.20;99.90
18229;DHT22;9239;50.932;3.142;2023-02-28T12:45:48;6.40;99.90
18229;DHT22;9239;50.932;3.142;2023-02-28T12:48:21;6.50;99.90
18229;DHT22;9239;50.932;3.142;2023-02-28T12:50:50;6.40;99.90
18229;DHT22;9239;50.932;3.142;2023-02-28T12:53:25;6.20;99.90
18229;DHT22;9239;50.932;3.142;2023-02-28T12:56:04;6.10;99.90
18229;DHT22;9239;50.932;3.142;2023-02-28T12:58:36;6.10;99.90
18229;DHT22;9239;50.932;3.142;2023-02-28T13:04:46;6.40;99.90
18229;DHT22;9239;50.932;3.142;2023-02-28T13:07:40;6.50;99.90
18229;DHT22;9239;50.932;3.142;2023-02-28T13:10:13;6.50;99.90
18229;DHT22;9239;50.932;3.142;2023-02-28T13:12:49;6.50;99.90
18229;DHT22;9239;50.932;3.142;2023-02-28T13:15:19;6.40;99.90
18229;DHT22;9239;50.932;3.142;2023-02-28T13:17:51;6.50;99.90
18229;DHT22;9239;50.932;3.142;2023-02-28T13:20:20;6.50;99.90
18229;DHT22;9239;50.932;3.142;2023-02-28T13:22:49;6.50;99.90
18229;DHT22;9239;50.932;3.142;2023-02-28T13:31:31;6.60;99.90
18229;DHT22;9239;50.932;3.142;2023-02-28T13:34:15;6.70;99.90
18229;DHT22;9239;50.932;3.142;2023-02-28T13:36:42;6.70;99.90
18229;DHT22;9239;50.932;3.142;2023-02-28T13:39:47;6.70;99.90
18229;DHT22;9239;50.932;3.142;2023-02-28T13:42:32;6.80;99.90
18229;DHT22;9239;50.932;3.142;2023-02-28T13:45:25;7.00;99.90
18229;DHT22;9239;50.932;3.142;2023-02-28T13:47:58;6.90;99.90
18229;DHT22;9239;50.932;3.142;2023-02-28T13:50:32;6.80;99.90
18229;DHT22;9239;50.932;3.142;2023-02-28T13:56:23;6.70;99.90
18229;DHT22;9239;50.932;3.142;2023-02-28T13:58:55;6.90;99.90
18229;DHT22;9239;50.932;3.142;2023-02-28T14:01:52;6.90;99.90
18229;DHT22;9239;50.932;3.142;2023-02-28T14:04:44;6.90;99.90
18229;DHT22;9239;50.932;3.142;2023-02-28T14:07:18;6.80;99.90
18229;DHT22;9239;50.932;3.142;2023-02-28T14:09:52;6.80;99.90
18229;DHT22;9239;50.932;3.142;2023-02-28T14:12:56;6.90;99.90
18229;DHT22;9239;50.932;3.142;2023-02-28T14:15:49;6.90;99.90
18229;DHT22;9239;50.932;3.142;2023-02-28T14:18:25;6.80;99.90
18229;DHT22;9239;50.932;3.142;2023-02-28T14:20:58;6.80;99.90
18229;DHT22;9239;50.932;3.142;2023-02-28T14:23:38;6.80;99.90
18229;DHT22;9239;50.932;3.142;2023-02-28T14:26:13;6.90;99.90
18229;DHT22;9239;50.932;3.142;2023-02-28T14:29:05;7.10;99.90
18229;DHT22;9239;50.932;3.142;2023-02-28T14:31:44;7.10;99.90
18229;DHT22;9239;50.932;3.142;2023-02-28T14:34:29;7.10;99.90
18229;DHT22;9239;50.932;3.142;2023-02-28T14:37:02;7.10;99.90
18229;DHT22;9239;50.932;3.142;2023-02-28T14:39:30;7.00;99.90
18229;DHT22;9239;50.932;3.142;2023-02-28T14:41:58;7.00;99.90
18229;DHT22;9239;50.932;3.142;2023-02-28T14:44:28;7.10;99.90
18229;DHT22;9239;50.932;3.142;2023-02-28T14:46:57;7.10;99.90
18229;DHT22;9239;50.932;3.142;2023-02-28T14:49:28;7.20;99.90
18229;DHT22;9239;50.932;3.142;2023-02-28T14:52:06;7.20;99.90
18229;DHT22;9239;50.932;3.142;2023-02-28T14:54:35;7.20;99.90
18229;DHT22;9239;50.932;3.142;2023-02-28T14:57:03;7.10;99.90
18229;DHT22;9239;50.932;3.142;2023-02-28T14:59:32;7.10;99.90
18229;DHT22;9239;50.932;3.142;2023-02-28T15:02:20;7.00;99.90
18229;DHT22;9239;50.932;3.142;2023-02-28T15:04:57;6.90;99.90
18229;DHT22;9239;50.932;3.142;2023-02-28T15:07:26;6.90;99.90
18229;DHT22;9239;50.932;3.142;2023-02-28T15:10:12;6.80;99.90
18229;DHT22;9239;50.932;3.142;2023-02-28T15:12:40;6.80;99.90
18229;DHT22;9239;50.932;3.142;2023-02-28T15:15:14;6.70;99.90
18229;DHT22;9239;50.932;3.142;2023-02-28T15:17:44;6.70;99.90
18229;DHT22;9239;50.932;3.142;2023-02-28T15:20:14;6.70;99.90
18229;DHT22;9239;50.932;3.142;2023-02-28T15:22:43;6.70;99.90
18229;DHT22;9239;50.932;3.142;2023-02-28T15:25:14;6.90;99.90
18229;DHT22;9239;50.932;3.142;2023-02-28T15:27:49;6.80;99.90
18229;DHT22;9239;50.932;3.142;2023-02-28T15:30:20;6.70;99.90
18229;DHT22;9239;50.932;3.142;2023-02-28T15:33:06;6.60;99.90
18229;DHT22;9239;50.932;3.142;2023-02-28T15:35:34;6.60;99.90
18229;DHT22;9239;50.932;3.142;2023-02-28T15:38:12;6.60;99.90
18229;DHT22;9239;50.932;3.142;2023-02-28T15:40:42;6.60;99.90
18229;DHT22;9239;50.932;3.142;2023-02-28T15:43:14;6.70;99.90
18229;DHT22;9239;50.932;3.142;2023-02-28T15:45:45;6.70;99.90
18229;DHT22;9239;50.932;3.142;2023-02-28T15:48:18;6.60;99.90
18229;DHT22;9239;50.932;3.142;2023-02-28T15:50:48;6.50;99.90
18229;DHT22;9239;50.932;3.142;2023-02-28T15:53:20;6.50;99.90
18229;DHT22;9239;50.932;3.142;2023-02-28T15:55:54;6.50;99.90
18229;DHT22;9239;50.932;3.142;2023-02-28T15:58:22;6.40;99.90
18229;DHT22;9239;50.932;3.142;2023-02-28T16:01:07;6.40;99.90
18229;DHT22;9239;50.932;3.142;2023-02-28T16:03:40;6.40;99.90
18229;DHT22;9239;50.932;3.142;2023-02-28T16:06:35;6.30;99.90
18229;DHT22;9239;50.932;3.142;2023-02-28T16:09:06;6.30;99.90
18229;DHT22;9239;50.932;3.142;2023-02-28T16:11:38;6.40;99.90
18229;DHT22;9239;50.932;3.142;2023-02-28T16:14:08;6.40;99.90
18229;DHT22;9239;50.932;3.142;2023-02-28T16:16:42;6.40;99.90
18229;DHT22;9239;50.932;3.142;2023-02-28T16:19:09;6.30;99.90
18229;DHT22;9239;50.932;3.142;2023-02-28T16:21:36;6.30;99.90
18229;DHT22;9239;50.932;3.142;2023-02-28T16:24:05;6.30;99.90
18229;DHT22;9239;50.932;3.142;2023-02-28T16:26:32;6.20;99.90
18229;DHT22;9239;50.932;3.142;2023-02-28T16:29:00;6.10;99.90
18229;DHT22;9239;50.932;3.142;2023-02-28T16:31:28;6.20;99.90
18229;DHT22;9239;50.932;3.142;2023-02-28T16:33:55;6.20;99.90
18229;DHT22;9239;50.932;3.142;2023-02-28T16:36:23;6.10;99.90
18229;DHT22;9239;50.932;3.142;2023-02-28T16:38:51;6.10;99.90
18229;DHT22;9239;50.932;3.142;2023-02-28T16:41:21;6.00;99.90
18229;DHT22;9239;50.932;3.142;2023-02-28T16:43:51;5.90;99.90
18229;DHT22;9239;50.932;3.142;2023-02-28T16:46:19;5.90;99.90
18229;DHT22;9239;50.932;3.142;2023-02-28T16:48:47;5.80;99.90
18229;DHT22;9239;50.932;3.142;2023-02-28T16:51:17;5.80;99.90
18229;DHT22;9239;50.932;3.142;2023-02-28T16:53:45;5.70;99.90
18229;DHT22;9239;50.932;3.142;2023-02-28T16:56:16;5.80;99.90
18229;DHT22;9239;50.932;3.142;2023-02-28T16:58:45;5.90;99.90